Time;durP1;ratioP1;P1;durP2;ratioP2;P2;SDS_P1;SDS_P2;PMS_P1;PMS_P2;Temp;Humidity;BMP_temperature;BMP_pressure;BME280_temperature;BME280_humidity;BME280_pressure;Samples;Min_cycle;Max_cycle;Signal;HPM_P1;HPM_P2
2023/12/11 00:01:10;;;;;;;10.52;2.97;;;;;;;-7.92;62.62;101017.84;5080631;28;20086;-72
2023/12/11 00:03:39;;;;;;;7.40;3.40;;;;;;;-8.44;62.54;100932.56;5083086;28;20044;-71
2023/12/11 00:06:05;;;;;;;5.78;2.72;;;;;;;-8.05;63.28;100974.56;5064416;28;20416;-69
2023/12/11 00:08:35;;;;;;;9.27;3.63;;;;;;;-8.12;62.91;100952.09;5084033;28;20047;-72
2023/12/11 00:11:05;;;;;;;7.90;3.30;;;;;;;-7.46;63.20;101035.09;5056507;28;20069;-71
2023/12/11 00:13:31;;;;;;;7.00;2.92;;;;;;;-7.80;62.61;100999.41;5083834;28;20078;-71
2023/12/11 00:16:03;;;;;;;9.98;2.92;;;;;;;-7.71;62.68;101026.31;5066290;28;20049;-71
2023/12/11 00:18:29;;;;;;;7.28;3.65;;;;;;;-8.33;62.79;100924.28;5071444;28;20036;-74
2023/12/11 00:20:59;;;;;;;6.07;2.38;;;;;;;-7.73;62.76;101037.97;5067257;28;20040;-70
2023/12/11 00:23:26;;;;;;;7.55;3.35;;;;;;;-7.58;63.77;101025.72;5058681;28;20044;-72
2023/12/11 00:25:53;;;;;;;8.88;2.97;;;;;;;-7.97;63.42;100934.81;5063856;28;20057;-73
2023/12/11 00:28:21;;;;;;;8.88;3.25;;;;;;;-7.76;63.82;100940.75;5079146;28;20087;-72
2023/12/11 00:30:54;;;;;;;;;;;;;;;-7.16;63.24;101038.38;5075682;28;20054;-72
2023/12/11 00:33:22;;;;;;;10.98;3.63;;;;;;;-7.37;63.24;100990.31;5042285;28;19992;-72
2023/12/11 00:35:48;;;;;;;6.80;2.78;;;;;;;-7.63;62.28;100948.63;5082366;28;20043;-71
2023/12/11 00:38:17;;;;;;;9.65;3.25;;;;;;;-7.29;63.09;101024.72;5049035;28;20036;-71
2023/12/11 00:40:46;;;;;;;8.27;3.38;;;;;;;-7.63;61.88;100995.75;5093331;28;20047;-73
2023/12/11 00:43:16;;;;;;;10.18;3.55;;;;;;;-7.81;62.31;100970.72;5066170;28;20052;-71
2023/12/11 00:45:42;;;;;;;8.75;3.85;;;;;;;-7.79;62.39;100988.53;5065842;28;20040;-72
2023/12/11 00:48:08;;;;;;;8.38;2.83;;;;;;;-7.72;62.09;101003.47;5081062;28;20037;-73
2023/12/11 00:50:35;;;;;;;7.47;2.47;;;;;;;-7.95;62.75;100981.31;5066851;28;20040;-72
2023/12/11 00:53:01;;;;;;;8.93;4.00;;;;;;;-7.78;63.21;100982.72;5082728;28;20473;-73
2023/12/11 00:55:27;;;;;;;9.35;3.67;;;;;;;-8.08;63.01;100901.94;5082127;28;20478;-72
2023/12/11 00:57:53;;;;;;;9.30;3.05;;;;;;;-7.77;62.83;100994.59;5085982;28;20032;-71
2023/12/11 01:00:19;;;;;;;6.47;2.95;;;;;;;-7.73;62.58;100986.53;5081772;28;20055;-72
2023/12/11 01:02:46;;;;;;;8.07;3.55;;;;;;;-7.85;63.24;100977.94;5084595;28;20452;-73
2023/12/11 01:05:15;;;;;;;7.82;3.28;;;;;;;-8.22;62.80;100931.09;5064175;28;20055;-74
2023/12/11 01:07:46;;;;;;;7.00;2.78;;;;;;;-7.87;62.16;100990.41;5080739;28;20130;-71
2023/12/11 01:10:13;;;;;;;9.13;3.67;;;;;;;-8.22;63.19;100925.19;5061972;28;20048;-73
2023/12/11 01:12:43;;;;;;;10.35;3.47;;;;;;;-8.22;62.58;100931.09;5081869;28;20093;-70
2023/12/11 01:15:10;;;;;;;9.27;3.95;;;;;;;-7.83;63.28;100986.53;5048645;28;20055;-71
2023/12/11 01:17:36;;;;;;;9.10;3.90;;;;;;;-8.13;63.27;100917.47;5081452;28;20055;-70
2023/12/11 01:20:02;;;;;;;11.57;3.85;;;;;;;-8.01;63.59;100921.03;5064670;28;20048;-71
2023/12/11 01:22:29;;;;;;;10.05;3.40;;;;;;;-7.89;63.32;100954.00;5065435;28;20044;-70
2023/12/11 01:24:55;;;;;;;9.48;4.32;;;;;;;-7.90;63.53;100929.50;5080966;28;20039;-72
2023/12/11 01:27:25;;;;;;;4.85;2.38;;;;;;;-7.90;62.09;100958.19;5045355;28;20056;-71
2023/12/11 01:29:51;;;;;;;9.13;3.40;;;;;;;-8.19;63.32;100933.88;5042970;28;20067;-72
2023/12/11 01:32:20;;;;;;;10.52;4.28;;;;;;;-8.69;63.26;100855.66;5080821;28;20028;-70
2023/12/11 01:34:49;;;;;;;12.88;4.18;;;;;;;-8.05;63.88;100929.09;5064984;28;20036;-71
2023/12/11 01:37:17;;;;;;;4.53;2.28;;;;;;;-7.97;62.08;100937.34;5069440;28;20406;-71
2023/12/11 01:39:43;;;;;;;6.45;3.35;;;;;;;-7.88;63.13;100984.50;5064139;28;20039;-69
2023/12/11 01:42:10;;;;;;;10.43;4.40;;;;;;;-8.20;62.81;100943.88;5064078;28;20036;-70
2023/12/11 01:44:36;;;;;;;8.45;4.25;;;;;;;-7.92;63.55;100989.13;5064266;28;20041;-71
2023/12/11 01:47:02;;;;;;;6.53;3.63;;;;;;;-7.91;63.39;100976.66;5080295;28;20071;-71
2023/12/11 01:49:36;;;;;;;9.88;3.78;;;;;;;-7.89;63.58;100961.59;5080667;28;20114;-69
2023/12/11 01:52:11;;;;;;;9.32;3.95;;;;;;;-7.62;63.72;100993.38;5066281;28;20636;-72
2023/12/11 01:54:38;;;;;;;14.20;4.30;;;;;;;-7.71;63.85;100990.94;5062579;28;20109;-70
2023/12/11 01:57:07;;;;;;;12.07;4.05;;;;;;;-7.93;63.32;100960.47;5063924;28;20063;-73
2023/12/11 01:59:34;;;;;;;10.85;4.00;;;;;;;-7.59;64.03;100992.72;5081462;28;20054;-71
2023/12/11 02:02:06;;;;;;;9.45;4.30;;;;;;;-7.63;63.41;100950.25;5053585;28;20104;-72
2023/12/11 02:04:32;;;;;;;6.97;2.88;;;;;;;-7.62;62.54;100980.72;5068982;28;20051;-70
2023/12/11 02:06:59;;;;;;;11.00;4.10;;;;;;;-7.74;63.61;100949.34;5085016;28;20036;-73
2023/12/11 02:09:31;;;;;;;13.15;4.80;;;;;;;-8.38;63.35;100839.66;5069518;28;20035;-72
2023/12/11 02:11:57;;;;;;;8.45;3.65;;;;;;;-7.88;63.56;100964.28;5071591;28;20046;-71
2023/12/11 02:14:24;;;;;;;11.07;4.10;;;;;;;-8.12;62.98;100949.56;5082577;28;20561;-71
2023/12/11 02:16:59;;;;;;;12.30;4.38;;;;;;;-8.35;63.31;100898.00;5076524;28;20078;-70
2023/12/11 02:19:30;;;;;;;12.63;3.88;;;;;;;-8.06;63.72;100915.59;5067346;28;20028;-70
2023/12/11 02:21:59;;;;;;;8.15;3.75;;;;;;;-7.74;64.43;100939.25;5081721;28;20037;-71
2023/12/11 02:24:32;;;;;;;13.13;4.47;;;;;;;-7.73;63.47;100969.72;5051025;28;20035;-73
2023/12/11 02:26:59;;;;;;;11.35;4.20;;;;;;;-8.19;64.26;100915.34;5076851;28;20055;-69
2023/12/11 02:29:25;;;;;;;14.32;4.50;;;;;;;-7.89;63.28;100962.50;5066681;28;20131;-71
2023/12/11 02:31:52;;;;;;;8.40;3.85;;;;;;;-8.73;62.93;100852.75;5084142;28;20036;-70
2023/12/11 02:34:22;;;;;;;14.10;4.13;;;;;;;-8.29;63.56;100936.41;5049725;28;20042;-70
2023/12/11 02:36:51;;;;;;;9.38;3.65;;;;;;;-8.21;63.83;100973.28;5065526;28;20089;-70
2023/12/11 02:39:18;;;;;;;11.48;3.70;;;;;;;-8.07;64.61;100953.38;5081528;28;20063;-71
2023/12/11 02:41:44;;;;;;;5.55;2.88;;;;;;;-7.80;64.52;100966.53;5083367;28;20044;-70
2023/12/11 02:44:10;;;;;;;9.98;4.65;;;;;;;-7.92;64.30;100931.91;5066318;28;20036;-70
2023/12/11 02:46:39;;;;;;;10.60;4.78;;;;;;;-7.52;64.87;100982.38;5084823;28;20505;-69
2023/12/11 02:49:08;;;;;;;11.00;3.67;;;;;;;-7.83;63.84;100933.44;5066533;28;20106;-70
2023/12/11 02:51:34;;;;;;;10.35;4.60;;;;;;;-7.72;64.37;100963.88;5066031;28;20037;-70
2023/12/11 02:54:08;;;;;;;9.43;4.30;;;;;;;-7.60;64.34;100958.09;5068819;28;20035;-70
2023/12/11 02:56:38;;;;;;;15.63;4.78;;;;;;;-7.63;63.85;100978.97;5056141;28;20044;-71
2023/12/11 02:59:05;;;;;;;9.50;4.55;;;;;;;-7.87;63.50;100986.25;5070492;28;20452;-71
2023/12/11 03:01:31;;;;;;;11.50;4.57;;;;;;;-7.81;64.24;100993.47;5073378;28;20160;-72
2023/12/11 03:03:57;;;;;;;9.82;4.18;;;;;;;-7.58;64.45;100997.91;5083073;28;20089;-70
2023/12/11 03:06:23;;;;;;;10.82;4.22;;;;;;;-7.88;64.12;100965.91;5083836;28;20132;-71
2023/12/11 03:08:50;;;;;;;14.35;5.18;;;;;;;-7.74;64.72;100985.66;5084564;28;20039;-71
2023/12/11 03:11:23;;;;;;;12.48;4.78;;;;;;;-8.30;63.30;100911.91;5057509;28;20043;-70
2023/12/11 03:13:50;;;;;;;13.05;3.55;;;;;;;-7.88;63.43;101011.38;5067018;28;20058;-70
2023/12/11 03:16:16;;;;;;;6.75;4.13;;;;;;;-8.10;63.24;100999.47;5064655;28;20086;-72
2023/12/11 03:18:42;;;;;;;10.77;3.80;;;;;;;-8.24;63.90;100962.06;5065099;28;20076;-71
2023/12/11 03:21:09;;;;;;;10.05;4.00;;;;;;;-8.33;64.16;100941.94;5087322;28;20071;-70
2023/12/11 03:23:35;;;;;;;10.80;4.60;;;;;;;-7.83;64.93;100987.41;5079718;28;20071;-71
2023/12/11 03:26:02;;;;;;;11.10;4.82;;;;;;;-7.73;64.79;100971.34;5066487;28;20039;-70
2023/12/11 03:28:31;;;;;;;12.70;4.75;;;;;;;-7.85;65.07;100914.75;5067634;28;20035;-69
2023/12/11 03:30:57;;;;;;;9.73;4.22;;;;;;;-7.97;64.88;100870.00;5084715;28;20520;-71
2023/12/11 03:33:26;;;;;;;13.15;4.68;;;;;;;-8.09;63.69;100881.63;5074613;28;20040;-71
2023/12/11 03:35:53;;;;;;;11.20;4.55;;;;;;;-7.83;63.54;100941.91;5068650;28;20043;-69
2023/12/11 03:38:19;;;;;;;14.00;4.43;;;;;;;-7.90;64.17;100930.41;5068792;28;20068;-71
2023/12/11 03:40:46;;;;;;;9.45;4.75;;;;;;;-7.70;64.85;100936.22;5052210;28;20386;-72
2023/12/11 03:43:12;;;;;;;15.82;5.32;;;;;;;-7.76;64.43;100897.78;5063462;28;20036;-73
2023/12/11 03:45:38;;;;;;;11.40;4.47;;;;;;;-7.95;64.15;100888.69;5066194;28;20046;-72
2023/12/11 03:48:05;;;;;;;12.40;5.07;;;;;;;-7.85;64.64;100907.16;5061466;28;20032;-73
2023/12/11 03:50:35;;;;;;;14.43;5.55;;;;;;;-7.64;64.10;100967.06;5067973;28;20174;-70
2023/12/11 03:53:04;;;;;;;4.97;3.03;;;;;;;-7.82;63.58;100968.94;5065716;28;20039;-70
2023/12/11 03:55:32;;;;;;;12.60;4.43;;;;;;;-7.81;64.13;100965.66;5079071;28;20040;-71
2023/12/11 03:57:59;;;;;;;13.25;4.35;;;;;;;-7.88;64.15;100939.00;5065661;28;20052;-72
2023/12/11 04:00:25;;;;;;;9.50;4.38;;;;;;;-7.68;64.51;100979.31;5066215;28;20505;-69
2023/12/11 04:02:51;;;;;;;12.65;3.40;;;;;;;-8.05;63.79;100952.75;5080006;28;20035;-72
2023/12/11 04:05:20;;;;;;;13.95;5.35;;;;;;;-7.97;64.02;100983.69;5064762;28;20049;-72
2023/12/11 04:07:48;;;;;;;16.38;5.22;;;;;;;-8.11;65.00;100947.16;5081572;28;20040;-70
2023/12/11 04:10:18;;;;;;;8.80;4.15;;;;;;;-8.23;65.21;100877.94;5052648;28;20044;-72
2023/12/11 04:12:50;;;;;;;11.77;4.97;;;;;;;-8.13;65.02;100899.81;5066956;28;20562;-70
2023/12/11 04:15:16;;;;;;;;;;;;;;;-7.80;64.09;100967.44;5082514;28;20502;-74
2023/12/11 04:17:47;;;;;;;13.98;5.47;;;;;;;-7.79;65.45;100971.72;5077073;28;19930;-73
2023/12/11 04:20:14;;;;;;;11.45;4.53;;;;;;;-8.11;65.13;100870.50;5081477;28;20040;-73
2023/12/11 04:22:40;;;;;;;13.02;4.93;;;;;;;-7.68;64.19;100961.63;5067153;28;20067;-74
2023/12/11 04:25:07;;;;;;;11.65;4.65;;;;;;;-7.91;64.07;100978.28;5080448;28;20051;-74
2023/12/11 04:27:36;;;;;;;11.80;3.50;;;;;;;-7.90;65.32;100962.34;5062903;28;20048;-73
2023/12/11 04:30:04;;;;;;;16.60;5.20;;;;;;;-8.10;65.53;100925.31;5079837;28;20059;-73
2023/12/11 04:32:33;;;;;;;16.20;6.15;;;;;;;-7.75;65.87;100930.78;5050356;28;20036;-72
2023/12/11 04:34:59;;;;;;;13.48;3.83;;;;;;;-7.60;65.38;100947.97;5067477;28;20043;-72
2023/12/11 04:37:26;;;;;;;17.00;5.50;;;;;;;-7.74;64.96;100934.19;5084685;28;20036;-71
2023/12/11 04:40:05;;;;;;;16.25;5.90;;;;;;;-7.45;65.40;100959.34;5064459;28;20161;-73
2023/12/11 04:42:31;;;;;;;10.80;4.75;;;;;;;-7.43;65.00;100959.47;5089908;28;20393;-74
2023/12/11 04:44:58;;;;;;;17.75;6.35;;;;;;;-7.28;66.01;100955.66;5065399;28;20043;-71
2023/12/11 04:47:24;;;;;;;18.20;5.93;;;;;;;-7.63;65.57;100880.34;5080128;28;20068;-73
2023/12/11 04:49:51;;;;;;;14.57;6.35;;;;;;;-6.98;65.72;100952.94;5048066;28;20051;-73
2023/12/11 04:52:23;;;;;;;15.48;5.88;;;;;;;-7.20;65.65;100923.38;5055948;28;20101;-72
2023/12/11 04:54:49;;;;;;;14.57;5.05;;;;;;;-7.18;64.81;100954.75;5065661;28;20374;-72
2023/12/11 04:57:16;;;;;;;14.07;5.55;;;;;;;-7.31;64.53;100974.78;5081218;28;20036;-72
2023/12/11 04:59:42;;;;;;;17.38;6.13;;;;;;;-7.60;65.21;100915.97;5047819;28;20839;-72
2023/12/11 05:02:11;;;;;;;14.00;5.03;;;;;;;-7.49;65.29;100939.59;5065152;28;20043;-72
2023/12/11 05:04:37;;;;;;;16.33;5.68;;;;;;;-7.42;65.88;100939.34;5082337;28;20048;-72
2023/12/11 05:07:03;;;;;;;11.80;5.53;;;;;;;-7.72;65.64;100869.47;5083043;28;20044;-72
2023/12/11 05:09:32;;;;;;;13.88;5.20;;;;;;;-7.24;65.28;100939.06;5081220;28;20032;-74
2023/12/11 05:11:58;;;;;;;12.57;5.70;;;;;;;-7.18;65.70;100933.66;5080883;28;20044;-72
2023/12/11 05:14:24;;;;;;;13.52;5.55;;;;;;;-6.94;65.40;100961.66;5080966;28;20232;-71
2023/12/11 05:16:51;;;;;;;15.35;4.88;;;;;;;-6.94;65.11;100962.56;5084459;28;20135;-71
2023/12/11 05:19:17;;;;;;;13.68;4.90;;;;;;;-6.93;65.02;100978.59;5077832;28;20033;-71
2023/12/11 05:21:52;;;;;;;15.27;5.57;;;;;;;-7.60;65.83;100860.34;5081169;28;20095;-71
2023/12/11 05:24:21;;;;;;;9.45;4.55;;;;;;;-7.02;65.52;100925.63;5066003;28;20068;-70
2023/12/11 05:26:50;;;;;;;11.77;5.05;;;;;;;-6.98;65.41;100925.09;5062964;28;20078;-71
2023/12/11 05:29:16;;;;;;;9.55;3.45;;;;;;;-6.78;64.47;100964.66;5080982;28;20060;-77
2023/12/11 05:31:42;;;;;;;9.18;4.03;;;;;;;-7.03;64.82;100924.75;5083004;28;20109;-69
2023/12/11 05:34:09;;;;;;;10.23;4.82;;;;;;;-7.13;64.82;100932.34;5087060;28;20383;-72
2023/12/11 05:36:35;;;;;;;13.15;4.70;;;;;;;-6.96;65.53;100934.59;5083522;28;20036;-72
2023/12/11 05:39:01;;;;;;;10.63;4.45;;;;;;;-6.87;65.22;100942.03;5087552;28;20398;-72
2023/12/11 05:41:30;;;;;;;12.20;4.75;;;;;;;-6.80;65.44;100951.00;5067110;28;20055;-72
2023/12/11 05:43:58;;;;;;;13.35;4.82;;;;;;;-6.77;66.25;100923.41;5082655;28;20044;-71
2023/12/11 05:46:27;;;;;;;10.15;4.32;;;;;;;-6.73;65.77;100917.78;5070999;28;20044;-77
2023/12/11 05:49:06;;;;;;;8.50;4.53;;;;;;;-6.76;65.30;100935.28;5086943;28;20082;-77
2023/12/11 05:51:32;;;;;;;10.50;4.53;;;;;;;-6.86;64.97;100927.72;5089329;28;20067;-76
2023/12/11 05:53:59;;;;;;;13.50;4.53;;;;;;;-7.15;64.82;100891.75;5087026;28;20074;-70
2023/12/11 05:56:30;;;;;;;6.93;3.50;;;;;;;-6.93;64.36;100931.41;5083497;28;20143;-73
2023/12/11 05:58:59;;;;;;;11.32;3.75;;;;;;;-6.80;65.11;100973.78;5054694;28;20101;-70
2023/12/11 06:01:26;;;;;;;12.82;4.38;;;;;;;-6.98;65.47;100930.16;5066385;28;20383;-71
2023/12/11 06:03:52;;;;;;;10.00;5.00;;;;;;;-7.23;64.88;100920.59;5065754;28;20060;-70
2023/12/11 06:06:19;;;;;;;6.28;2.88;;;;;;;-7.31;64.59;100929.25;5068531;28;20103;-68
2023/12/11 06:08:45;;;;;;;8.93;4.40;;;;;;;-7.08;65.58;100960.56;5066146;28;20072;-68
2023/12/11 06:11:15;;;;;;;13.07;4.32;;;;;;;-7.47;64.92;100879.06;5083497;28;20123;-74
2023/12/11 06:13:41;;;;;;;5.38;2.78;;;;;;;-7.27;64.71;100942.25;5084770;28;20047;-79
2023/12/11 06:16:08;;;;;;;9.73;3.70;;;;;;;-7.09;65.76;100947.03;5085043;28;20104;-68
2023/12/11 06:18:34;;;;;;;11.90;4.25;;;;;;;-7.01;65.13;100952.69;5075432;28;20047;-65
2023/12/11 06:21:00;;;;;;;11.27;3.55;;;;;;;-7.06;65.65;100905.91;5061876;28;20040;-67
2023/12/11 06:23:27;;;;;;;11.45;4.53;;;;;;;-6.66;65.84;100931.84;5060152;28;20044;-69
2023/12/11 06:25:53;;;;;;;10.55;4.18;;;;;;;-6.78;65.52;100903.00;5061951;28;20466;-70
2023/12/11 06:28:19;;;;;;;8.77;3.95;;;;;;;-6.53;65.02;100948.88;5042923;28;20052;-69
2023/12/11 06:30:45;;;;;;;9.18;3.72;;;;;;;-6.50;65.47;100941.50;5066745;28;20098;-66
2023/12/11 06:33:11;;;;;;;7.60;3.55;;;;;;;-6.87;64.30;100915.81;5058574;28;20047;-66
2023/12/11 06:35:37;;;;;;;11.38;4.28;;;;;;;-6.69;65.46;100947.66;5044630;28;20139;-67
2023/12/11 06:38:03;;;;;;;11.43;3.60;;;;;;;-6.91;65.11;100906.22;5073886;28;20138;-67
2023/12/11 06:40:29;;;;;;;8.45;3.97;;;;;;;-6.63;65.83;100915.97;5082206;28;20101;-67
2023/12/11 06:42:55;;;;;;;11.48;4.88;;;;;;;-6.60;65.46;100933.97;5059364;28;20044;-68
2023/12/11 06:45:21;;;;;;;11.20;3.58;;;;;;;-6.51;65.42;100915.28;5082961;28;20036;-67
2023/12/11 06:47:47;;;;;;;9.93;3.83;;;;;;;-6.13;65.80;100934.22;5055776;28;20040;-66
2023/12/11 06:50:13;;;;;;;11.48;3.95;;;;;;;-6.24;65.51;100924.88;5057048;28;20181;-65
2023/12/11 06:52:39;;;;;;;11.35;4.07;;;;;;;-6.11;65.38;100926.72;5074481;28;20074;-66
2023/12/11 06:55:07;;;;;;;8.82;3.28;;;;;;;-5.96;65.25;100926.97;5060421;28;20059;-67
2023/12/11 06:57:33;;;;;;;9.00;4.38;;;;;;;-6.00;65.06;100930.06;5092022;28;20105;-67
2023/12/11 07:00:02;;;;;;;10.07;4.47;;;;;;;-6.32;64.20;100910.78;5058767;28;20055;-65
2023/12/11 07:02:29;;;;;;;8.85;4.00;;;;;;;-6.36;64.60;100914.69;5061136;28;20397;-64
2023/12/11 07:04:56;;;;;;;9.13;4.20;;;;;;;-6.49;64.65;100904.41;5043750;28;20498;-65
2023/12/11 07:07:22;;;;;;;11.00;3.95;;;;;;;-6.29;65.08;100895.81;5065541;28;20136;-66
2023/12/11 07:09:48;;;;;;;8.88;4.03;;;;;;;-6.26;63.98;100903.63;5082238;28;20085;-64
2023/12/11 07:12:14;;;;;;;12.40;4.53;;;;;;;-6.10;65.38;100936.09;5061477;28;20043;-65
2023/12/11 07:14:40;;;;;;;7.93;3.95;;;;;;;-6.01;64.50;100934.28;5043376;28;20045;-66
2023/12/11 07:17:06;;;;;;;19.58;5.55;;;;;;;-6.00;65.07;100932.59;5077453;28;20044;-64
2023/12/11 07:19:32;;;;;;;8.45;3.45;;;;;;;-5.93;64.91;100927.19;5075016;28;20197;-65
2023/12/11 07:21:58;;;;;;;7.95;3.67;;;;;;;-6.21;65.14;100861.78;5059319;28;20051;-65
2023/12/11 07:24:25;;;;;;;8.63;4.18;;;;;;;-5.87;64.15;100925.13;5075438;28;20098;-67
2023/12/11 07:26:51;;;;;;;10.18;3.80;;;;;;;-5.83;64.56;100919.50;5078029;28;20048;-68
2023/12/11 07:29:17;;;;;;;8.20;3.65;;;;;;;-5.82;64.33;100906.06;5059756;28;20040;-65
2023/12/11 07:31:44;;;;;;;15.63;3.90;;;;;;;-5.99;63.51;100902.28;5070009;28;20119;-64
2023/12/11 07:34:10;;;;;;;10.10;4.05;;;;;;;-6.27;64.13;100881.56;5071004;28;20037;-69
2023/12/11 07:36:36;;;;;;;8.95;3.42;;;;;;;-6.05;64.15;100892.56;5072025;28;20448;-64
2023/12/11 07:39:02;;;;;;;8.90;3.65;;;;;;;-6.00;64.90;100866.69;5053618;28;20043;-66
2023/12/11 07:41:28;;;;;;;6.93;3.22;;;;;;;-5.84;63.33;100896.59;5053973;28;20075;-69
2023/12/11 07:43:54;;;;;;;9.60;3.60;;;;;;;-5.95;63.63;100898.31;5049710;28;20040;-70
2023/12/11 07:46:21;;;;;;;9.63;4.05;;;;;;;-6.48;64.91;100798.13;5040445;28;20110;-67
2023/12/11 07:48:48;;;;;;;9.45;3.95;;;;;;;-5.82;63.71;100902.66;5071245;28;20648;-71
2023/12/11 07:51:21;;;;;;;9.48;4.03;;;;;;;-5.71;64.11;100903.44;5075365;28;20044;-70
2023/12/11 07:53:47;;;;;;;9.70;3.85;;;;;;;-5.83;64.52;100856.13;5053435;28;20072;-66
2023/12/11 07:56:21;;;;;;;9.77;3.92;;;;;;;-5.54;64.49;100876.81;5053254;28;20048;-68
2023/12/11 07:58:47;;;;;;;9.57;4.25;;;;;;;-5.47;63.89;100889.13;5039387;28;20048;-67
2023/12/11 08:01:13;;;;;;;9.38;3.70;;;;;;;-5.68;63.66;100876.66;5038075;28;20048;-66
2023/12/11 08:03:40;;;;;;;11.68;4.05;;;;;;;-5.86;63.55;100881.28;5053192;28;20031;-68
2023/12/11 08:06:08;;;;;;;10.02;4.10;;;;;;;-5.83;63.95;100876.41;5070826;28;20101;-66
2023/12/11 08:08:43;;;;;;;8.80;3.53;;;;;;;-5.71;63.35;100883.16;5071657;28;20159;-70
2023/12/11 08:11:20;;;;;;;7.30;3.70;;;;;;;-5.77;63.00;100889.53;5072332;28;20044;-68
2023/12/11 08:13:47;;;;;;;9.73;3.85;;;;;;;-5.68;64.49;100883.41;5086277;28;20550;-65
2023/12/11 08:16:14;;;;;;;10.73;3.70;;;;;;;-5.46;64.10;100890.91;5072116;28;20040;-67
2023/12/11 08:18:41;;;;;;;10.23;3.67;;;;;;;-5.76;63.52;100868.47;5069038;28;20055;-66
2023/12/11 08:21:07;;;;;;;10.45;3.60;;;;;;;-5.71;63.53;100873.00;5070564;28;20044;-66
2023/12/11 08:23:33;;;;;;;9.80;3.67;;;;;;;-5.70;63.69;100873.13;5070833;28;20055;-66
2023/12/11 08:25:59;;;;;;;7.20;3.65;;;;;;;-6.02;63.48;100840.34;5054546;28;22061;-70
2023/12/11 08:28:25;;;;;;;6.70;2.55;;;;;;;-6.42;63.17;100796.06;5064061;28;20048;-69
2023/12/11 08:30:54;;;;;;;11.10;3.92;;;;;;;-6.14;63.94;100833.59;5045228;28;20078;-68
2023/12/11 08:33:20;;;;;;;9.93;3.60;;;;;;;-5.75;64.19;100880.41;5067270;28;20044;-68
2023/12/11 08:35:47;;;;;;;7.03;3.13;;;;;;;-6.35;63.51;100751.78;5057868;28;20047;-66
2023/12/11 08:38:16;;;;;;;7.32;3.47;;;;;;;-5.72;63.69;100856.03;5053325;28;20409;-67
2023/12/11 08:40:42;;;;;;;8.80;3.95;;;;;;;-5.80;63.68;100858.88;5055137;28;20043;-71
2023/12/11 08:43:10;;;;;;;11.18;4.10;;;;;;;-5.67;63.78;100862.34;5050703;28;20047;-67
2023/12/11 08:45:36;;;;;;;10.13;4.43;;;;;;;-5.83;62.92;100834.97;5076149;28;20081;-66
2023/12/11 08:48:03;;;;;;;8.15;3.08;;;;;;;-5.99;63.40;100813.56;5072766;28;20044;-66
2023/12/11 08:50:30;;;;;;;6.20;2.85;;;;;;;-6.00;62.01;100826.13;5071662;28;20036;-66
2023/12/11 08:53:00;;;;;;;9.60;3.95;;;;;;;-5.92;62.91;100836.03;5083535;28;20040;-73
2023/12/11 08:55:34;;;;;;;4.28;2.17;;;;;;;-6.00;62.25;100831.19;5082493;28;20041;-69
2023/12/11 08:58:03;;;;;;;11.02;3.35;;;;;;;-6.77;62.73;100714.91;5084018;28;20502;-71
2023/12/11 09:00:30;;;;;;;8.10;3.17;;;;;;;-6.04;62.92;100827.56;5087065;28;20044;-67
2023/12/11 09:02:56;;;;;;;10.13;4.15;;;;;;;-6.05;63.94;100781.03;5084170;28;20047;-72
2023/12/11 09:05:22;;;;;;;7.60;3.92;;;;;;;-5.94;63.47;100773.31;5083864;28;20044;-73
2023/12/11 09:07:49;;;;;;;9.77;3.60;;;;;;;-5.61;62.89;100833.22;5083254;28;20045;-70
2023/12/11 09:10:18;;;;;;;6.97;3.60;;;;;;;-5.86;61.32;100811.91;5067420;28;20033;-68
2023/12/11 09:12:48;;;;;;;13.15;3.40;;;;;;;-5.93;62.41;100813.13;5069039;28;20091;-69
2023/12/11 09:15:37;;;;;;;9.73;3.67;;;;;;;-5.73;64.10;100829.78;5089246;28;20037;-70
2023/12/11 09:18:07;;;;;;;7.40;3.42;;;;;;;-5.70;63.79;100826.59;5072305;28;20282;-72
2023/12/11 09:20:34;;;;;;;6.00;2.53;;;;;;;-5.78;62.00;100816.78;5068091;28;20032;-72
2023/12/11 09:23:02;;;;;;;8.25;3.33;;;;;;;-6.03;62.21;100819.19;5088457;28;20033;-70
2023/12/11 09:25:36;;;;;;;12.95;4.50;;;;;;;-6.25;62.91;100763.50;5072156;28;20071;-69
2023/12/11 09:28:20;;;;;;;10.02;3.53;;;;;;;-6.39;63.56;100753.22;5084509;28;20059;-69
2023/12/11 09:30:50;;;;;;;7.75;3.33;;;;;;;-6.18;63.41;100783.44;5069283;28;20470;-70
2023/12/11 09:33:15;;;;;;;9.68;3.30;;;;;;;-6.11;64.08;100770.47;5071366;28;20040;-70
2023/12/11 09:35:46;;;;;;;12.07;3.38;;;;;;;-5.97;62.59;100803.50;5075828;28;20070;-70
2023/12/11 09:38:21;;;;;;;8.15;3.05;;;;;;;-5.82;64.14;100794.50;5073140;28;20040;-69
2023/12/11 09:40:47;;;;;;;10.38;3.35;;;;;;;-6.03;64.23;100707.66;5089656;28;20131;-68
2023/12/11 09:43:17;;;;;;;7.53;3.58;;;;;;;-5.66;62.57;100747.44;5088003;28;20087;-67
2023/12/11 09:45:46;;;;;;;10.55;3.35;;;;;;;-5.55;63.90;100776.09;5090107;28;20608;-67
2023/12/11 09:48:21;;;;;;;7.40;2.67;;;;;;;-5.59;63.06;100777.50;5076897;28;20040;-70
2023/12/11 09:50:47;;;;;;;10.93;3.28;;;;;;;-5.65;62.79;100741.59;5069741;28;20031;-66
2023/12/11 09:53:29;;;;;;;10.15;3.30;;;;;;;-5.46;63.65;100759.88;5085739;28;20452;-69
2023/12/11 09:56:02;;;;;;;10.20;3.70;;;;;;;-5.54;63.35;100733.06;5088349;28;20044;-68
2023/12/11 09:58:40;;;;;;;10.05;3.53;;;;;;;-5.43;62.89;100745.66;5084633;28;20052;-68
2023/12/11 10:01:07;;;;;;;8.43;3.60;;;;;;;-5.58;63.69;100713.31;5050315;28;20079;-70
2023/12/11 10:03:35;;;;;;;8.18;2.97;;;;;;;-5.43;62.50;100738.91;5074282;28;21825;-70
2023/12/11 10:06:09;;;;;;;5.05;2.22;;;;;;;-5.65;62.16;100752.59;5069814;28;20090;-70
2023/12/11 10:08:53;;;;;;;8.50;2.67;;;;;;;-6.00;62.64;100701.91;5068193;28;20040;-70
2023/12/11 10:11:27;;;;;;;8.35;3.63;;;;;;;-5.76;63.20;100743.34;5081471;28;20432;-70
2023/12/11 10:14:12;;;;;;;5.68;2.58;;;;;;;-6.11;62.26;100707.13;5083424;28;20044;-67
2023/12/11 10:16:39;;;;;;;7.65;3.00;;;;;;;-5.95;63.55;100705.66;5085764;28;20060;-70
2023/12/11 10:19:05;;;;;;;8.20;3.45;;;;;;;-5.67;63.69;100722.84;5067179;28;20056;-70
2023/12/11 10:21:38;;;;;;;12.60;3.33;;;;;;;-5.50;64.18;100706.25;5081419;28;20036;-66
2023/12/11 10:24:15;;;;;;;11.43;3.22;;;;;;;-5.32;63.31;100752.34;5082867;28;20090;-68
2023/12/11 10:26:53;;;;;;;6.72;2.70;;;;;;;-5.88;62.72;100656.25;5083752;28;20418;-69
2023/12/11 10:29:21;;;;;;;9.52;3.05;;;;;;;-5.64;62.30;100725.59;5068764;28;20044;-69
2023/12/11 10:31:50;;;;;;;7.82;2.83;;;;;;;-5.52;63.33;100741.69;5068674;28;20043;-68
2023/12/11 10:35:02;;;;;;;7.60;3.03;;;;;;;-5.91;63.50;100657.78;5084147;28;20039;-70
2023/12/11 10:37:38;;;;;;;;;;;;;;;-5.50;62.84;100757.88;5027152;28;20051;-69
2023/12/11 10:40:12;;;;;;;10.20;3.00;;;;;;;-5.85;63.02;100703.00;5025875;28;19917;-71
2023/12/11 10:42:40;;;;;;;8.55;2.78;;;;;;;-5.73;62.94;100724.94;5041244;28;20127;-65
2023/12/11 10:45:09;;;;;;;6.90;3.00;;;;;;;-5.81;63.73;100697.38;5081667;28;20048;-66
2023/12/11 10:47:37;;;;;;;7.60;2.88;;;;;;;-5.38;63.74;100729.06;5064658;28;20519;-66
2023/12/11 10:50:12;;;;;;;7.20;2.38;;;;;;;-5.46;63.12;100704.06;5098490;28;20039;-65
2023/12/11 10:52:40;;;;;;;5.85;1.30;;;;;;;-5.54;62.12;100730.53;5083180;28;20044;-66
2023/12/11 10:55:09;;;;;;;10.35;3.13;;;;;;;-5.43;63.65;100740.56;5081870;28;20047;-65
2023/12/11 10:57:38;;;;;;;5.93;2.45;;;;;;;-5.54;63.20;100710.25;5078480;28;20036;-65
2023/12/11 11:00:07;;;;;;;7.18;3.15;;;;;;;-5.53;62.87;100701.00;5083358;28;20108;-68
2023/12/11 11:02:34;;;;;;;5.45;2.83;;;;;;;-5.43;62.55;100713.53;5084893;28;20174;-74
2023/12/11 11:05:05;;;;;;;4.32;2.30;;;;;;;-5.25;62.74;100729.16;5068392;28;20062;-73
2023/12/11 11:08:08;;;;;;;;;;;;;;;;;;;;;
2023/12/11 11:10:47;;;;;;;4.50;1.70;;;;;;;-5.78;61.75;100681.50;5096156;28;20047;-69
2023/12/11 11:13:29;;;;;;;6.40;2.80;;;;;;;-6.06;62.56;100680.44;5080151;28;20176;-66
2023/12/11 11:15:59;;;;;;;8.18;3.03;;;;;;;-5.73;63.54;100719.84;5048495;28;20046;-66
2023/12/11 11:18:26;;;;;;;6.63;2.93;;;;;;;-5.52;63.90;100734.06;5066440;28;20040;-65
2023/12/11 11:21:16;;;;;;;12.02;3.38;;;;;;;-5.41;63.36;100726.34;5083544;28;20520;-66
2023/12/11 11:23:47;;;;;;;;;;;;;;;-5.35;63.22;100717.50;5081436;28;21284;-64
2023/12/11 11:26:43;;;;;;;5.03;2.25;;;;;;;-5.52;62.01;100716.31;5084314;28;20014;-66
2023/12/11 11:29:44;;;;;;;4.63;2.40;;;;;;;-5.57;63.52;100699.88;5079976;28;20139;-67
2023/12/11 11:32:15;;;;;;;7.90;2.70;;;;;;;-6.13;63.45;100603.84;5067884;28;20040;-66